Fugaku Maru — JH3428 — position and weather

sailwx.info

Track history (hours):
 
Tides and Currents Weather Stations Pressure Air Temp Water Temp Dewpoint Dewpoint Depression Visibility Wind Speed Wind Dir Waves Ship Positions

Fugaku Maru

Last reported at 2016-Aug-26 13:33 UTC. Time now 2016-Aug-26 13:46 UTC.
Position N 36°39' E 141°15'.

Length 165 m; draft 7.2 m.

Type: Cargo ship. MMSI: 431200176.

Date/timePositionNaut miles runAvg speedWind from/ knotsBaromVisibWave heightAir tempDewpointWater temp
2016-Aug-26 13:33N 36°39' E 141°15'1919.0
2016-Aug-26 12:32N 36°58' E 141°20'  
2016-Aug-23 23:25N 36°31' E 141°06'1821.2
2016-Aug-23 22:32N 36°13' E 141°04'2121.2
2016-Aug-23 21:33N 35°52' E 141°01'2120.7
2016-Aug-23 20:33N 35°32' E 140°53'2019.6
2016-Aug-23 19:31N 35°16' E 140°39'1919.6
2016-Aug-23 18:33N 35°02' E 140°23'2120.8
2016-Aug-23 17:33N 34°51' E 140°01'2020.4
2016-Aug-23 16:33N 34°42' E 139°39'  
Track history (hours):
 
Tides and Currents Weather Stations Pressure Air Temp Water Temp Dewpoint Dewpoint Depression Visibility Wind Speed Wind Dir Waves Ship Positions

Fugaku Maru

Last reported at 2016-Aug-26 13:33 UTC. Time now 2016-Aug-26 13:46 UTC.
Position N 36°39' E 141°15'.

Length 165 m; draft 7.2 m.

Type: Cargo ship. MMSI: 431200176.

Date/timePositionNaut miles runAvg speedWind from/ knotsBaromVisibWave heightAir tempDewpointWater temp
2016-Aug-26 13:33N 36°39' E 141°15'1919.0
2016-Aug-26 12:32N 36°58' E 141°20'  
2016-Aug-23 23:25N 36°31' E 141°06'1821.2
2016-Aug-23 22:32N 36°13' E 141°04'2121.2
2016-Aug-23 21:33N 35°52' E 141°01'2120.7
2016-Aug-23 20:33N 35°32' E 140°53'2019.6
2016-Aug-23 19:31N 35°16' E 140°39'1919.6
2016-Aug-23 18:33N 35°02' E 140°23'2120.8
2016-Aug-23 17:33N 34°51' E 140°01'2020.4
2016-Aug-23 16:33N 34°42' E 139°39'  

Dump ship's entire track history